createdAt,value
2019-05-10T00:02:23.343Z,45.17
2019-05-10T00:05:17.417Z,43.17
2019-05-10T00:08:12.646Z,44.03
2019-05-10T00:10:52.363Z,43.40
2019-05-10T00:13:27.597Z,43.00
2019-05-10T00:16:03.247Z,46.07
2019-05-10T00:18:40.227Z,46.23
2019-05-10T00:21:20.646Z,44.00
2019-05-10T00:23:55.413Z,44.87
2019-05-10T00:26:30.342Z,46.80
2019-05-10T00:29:08.452Z,44.77
2019-05-10T00:31:45.228Z,44.43
2019-05-10T00:34:24.047Z,46.57
2019-05-10T00:37:01.332Z,44.87
2019-05-10T00:39:39.439Z,44.57
2019-05-10T00:42:17.344Z,45.00
2019-05-10T00:44:53.913Z,45.37
2019-05-10T00:47:31.915Z,45.30
2019-05-10T00:50:10.427Z,45.80
2019-05-10T00:52:47.823Z,46.90
2019-05-10T00:55:27.553Z,48.73
2019-05-10T00:58:05.867Z,46.77
2019-05-10T01:00:40.600Z,47.43
2019-05-10T01:03:17.650Z,46.10
2019-05-10T01:05:55.164Z,49.30
2019-05-10T01:08:31.647Z,50.17
2019-05-10T01:11:09.327Z,48.03
2019-05-10T01:13:47.229Z,49.67
2019-05-10T01:16:23.676Z,46.97
2019-05-10T01:18:59.758Z,48.00
2019-05-10T01:21:36.706Z,48.27
2019-05-10T01:24:15.058Z,51.17
2019-05-10T01:26:51.653Z,51.03
2019-05-10T01:29:29.816Z,50.40
2019-05-10T01:32:08.433Z,48.97
2019-05-10T01:34:46.033Z,47.97
2019-05-10T01:37:24.437Z,43.37
2019-05-10T01:40:02.953Z,37.97
2019-05-10T01:42:39.322Z,30.47
2019-05-10T01:45:18.342Z,35.93
2019-05-10T01:47:55.019Z,30.43
2019-05-10T01:50:33.227Z,31.27
2019-05-10T01:53:10.819Z,35.37
2019-05-10T01:55:52.115Z,36.50
2019-05-10T01:58:27.847Z,44.07
2019-05-10T02:01:05.232Z,42.87
2019-05-10T02:03:43.462Z,45.93
2019-05-10T02:06:20.932Z,46.50
2019-05-10T02:08:57.817Z,48.53
2019-05-10T02:11:36.429Z,42.33
2019-05-10T02:14:15.643Z,42.13
2019-05-10T02:16:49.052Z,47.10
2019-05-10T02:19:21.521Z,46.63
2019-05-10T02:21:55.023Z,50.43
2019-05-10T02:24:28.309Z,53.83
2019-05-10T02:27:03.638Z,48.90
2019-05-10T02:29:39.811Z,54.50
2019-05-10T02:32:15.993Z,53.07
2019-05-10T02:34:50.614Z,47.60
2019-05-10T02:37:28.505Z,51.00
2019-05-10T02:40:06.915Z,47.13
2019-05-10T02:42:44.507Z,47.40
2019-05-10T02:45:24.148Z,51.57
2019-05-10T02:48:01.244Z,51.70
2019-05-10T02:50:37.670Z,53.30
2019-05-10T02:53:12.318Z,55.47
2019-05-10T02:55:47.553Z,54.57
2019-05-10T02:58:22.596Z,57.47
2019-05-10T03:00:58.543Z,57.40
2019-05-10T03:03:34.645Z,55.27
2019-05-10T03:06:10.657Z,54.50
2019-05-10T03:09:08.213Z,58.00
2019-05-10T03:11:52.159Z,57.30
2019-05-10T03:14:29.345Z,59.60
2019-05-10T03:17:03.865Z,56.27
2019-05-10T03:19:37.464Z,57.53
2019-05-10T03:22:11.165Z,53.57
2019-05-10T03:24:44.264Z,58.30
2019-05-10T03:27:21.438Z,57.67
2019-05-10T03:29:56.470Z,57.97
2019-05-10T03:32:30.091Z,55.40
2019-05-10T03:35:07.656Z,54.57
2019-05-10T03:37:42.078Z,56.03
2019-05-10T03:40:14.548Z,54.37
2019-05-10T03:42:47.027Z,57.80
2019-05-10T03:45:20.118Z,58.57
2019-05-10T03:47:52.177Z,57.97
2019-05-10T03:50:24.234Z,60.03
2019-05-10T03:52:56.510Z,58.90
2019-05-10T03:55:28.949Z,58.50
2019-05-10T03:58:03.641Z,58.07
2019-05-10T04:00:41.814Z,55.53
2019-05-10T04:03:17.292Z,54.13
2019-05-10T04:05:51.794Z,54.63
2019-05-10T04:08:29.269Z,50.37
2019-05-10T04:11:04.814Z,53.60
2019-05-10T04:13:40.974Z,54.60
2019-05-10T04:16:16.424Z,53.90
2019-05-10T04:18:52.574Z,50.87
2019-05-10T04:21:28.690Z,48.17
2019-05-10T04:24:04.805Z,49.70
2019-05-10T04:26:41.051Z,44.97
2019-05-10T04:29:15.976Z,45.30
2019-05-10T04:31:52.754Z,43.47
2019-05-10T04:34:30.040Z,43.03
2019-05-10T04:37:05.385Z,38.37
2019-05-10T04:39:43.589Z,34.87
2019-05-10T04:42:20.567Z,34.33
2019-05-10T04:44:59.289Z,34.27
2019-05-10T04:47:37.602Z,29.60
2019-05-10T04:50:16.434Z,31.00
2019-05-10T04:52:51.914Z,26.00
2019-05-10T04:55:27.312Z,28.93
2019-05-10T04:58:06.442Z,27.90
2019-05-10T05:00:44.324Z,31.97
2019-05-10T05:03:22.125Z,24.00
2019-05-10T05:05:59.828Z,20.30
2019-05-10T05:08:49.882Z,20.33
2019-05-10T05:11:24.888Z,20.07
2019-05-10T05:14:03.054Z,20.20
2019-05-10T05:16:41.049Z,17.87
2019-05-10T05:19:18.327Z,17.10
2019-05-10T05:21:54.100Z,17.03
2019-05-10T05:24:28.505Z,18.80
2019-05-10T05:27:08.353Z,18.60
2019-05-10T05:29:49.017Z,17.27
2019-05-10T05:32:25.482Z,17.17
2019-05-10T05:35:02.660Z,17.63
2019-05-10T05:37:41.087Z,16.33
2019-05-10T05:40:18.162Z,16.03
2019-05-10T05:42:54.011Z,15.97
2019-05-10T05:45:34.155Z,14.50
2019-05-10T05:48:07.864Z,15.37
2019-05-10T05:50:53.554Z,14.10
2019-05-10T05:53:42.140Z,14.23
2019-05-10T05:56:23.582Z,15.47
2019-05-10T05:59:00.666Z,14.43
2019-05-10T06:01:37.919Z,14.07
2019-05-10T06:04:14.640Z,15.10
2019-05-10T06:06:53.736Z,15.17
2019-05-10T06:09:37.806Z,14.90
2019-05-10T06:12:14.235Z,15.67
2019-05-10T06:14:52.415Z,14.87
2019-05-10T06:17:32.422Z,15.03
2019-05-10T06:20:12.573Z,14.40
2019-05-10T06:23:07.472Z,14.23
2019-05-10T06:25:43.534Z,14.43
2019-05-10T06:28:56.267Z,13.73
2019-05-10T06:31:05.062Z,12.70
2019-05-10T06:33:50.919Z,12.57
2019-05-10T06:36:30.287Z,13.40
2019-05-10T06:39:08.390Z,12.20
2019-05-10T06:47:35.015Z,11.80
2019-05-10T06:50:07.663Z,11.37
2019-05-10T06:52:38.315Z,10.37
2019-05-10T06:55:08.961Z,8.87
2019-05-10T06:57:39.676Z,10.87
2019-05-10T07:00:11.316Z,7.43
2019-05-10T07:02:41.981Z,6.77
2019-05-10T07:05:13.104Z,6.80
2019-05-10T07:07:45.355Z,10.20
2019-05-10T07:10:19.627Z,13.57
2019-05-10T07:12:48.571Z,11.03
2019-05-10T07:15:19.998Z,12.87
2019-05-10T07:17:50.656Z,7.40
2019-05-10T07:20:23.573Z,6.07
2019-05-10T07:22:53.654Z,6.30
2019-05-10T07:25:24.138Z,6.87
2019-05-10T07:27:54.717Z,8.80
2019-05-10T07:30:36.842Z,10.47
2019-05-10T07:33:07.556Z,9.40
2019-05-10T07:35:38.797Z,9.17
2019-05-10T07:38:09.753Z,8.77
2019-05-10T07:40:40.358Z,8.40
2019-05-10T07:43:11.001Z,9.47
2019-05-10T07:45:41.654Z,9.67
2019-05-10T07:48:12.187Z,7.77
2019-05-10T07:50:49.796Z,7.57
2019-05-10T07:53:16.180Z,7.37
2019-05-10T07:55:47.445Z,7.23
2019-05-10T07:58:18.021Z,6.57
2019-05-10T08:00:48.441Z,7.80
2019-05-10T08:03:23.743Z,8.97
2019-05-10T08:05:56.937Z,9.87
2019-05-10T08:08:23.818Z,10.07
2019-05-10T08:10:54.377Z,9.73
2019-05-10T08:13:25.313Z,10.50
2019-05-10T08:15:56.074Z,13.20
2019-05-10T08:18:29.170Z,11.67
2019-05-10T08:21:02.462Z,9.97
2019-05-10T08:23:31.695Z,12.27
2019-05-10T08:26:04.447Z,13.50
2019-05-10T08:28:37.890Z,12.77
2019-05-10T08:31:07.393Z,12.40
2019-05-10T08:33:38.005Z,10.30
2019-05-10T08:36:08.708Z,11.10
2019-05-10T08:38:39.718Z,11.47
2019-05-10T08:41:14.733Z,10.30
2019-05-10T08:43:44.020Z,11.27
2019-05-10T08:46:14.708Z,10.90
2019-05-10T08:48:53.088Z,10.53
2019-05-10T08:51:19.348Z,10.87
2019-05-10T08:53:53.495Z,9.77
2019-05-10T08:56:24.199Z,9.63
2019-05-10T08:58:54.812Z,9.90
2019-05-10T09:01:30.167Z,9.57
2019-05-10T09:04:00.879Z,8.83
2019-05-10T09:06:30.004Z,9.50
2019-05-10T09:09:03.571Z,8.20
2019-05-10T09:11:33.009Z,8.73
2019-05-10T09:14:03.812Z,9.10
2019-05-10T09:16:43.134Z,8.50
2019-05-10T09:19:06.784Z,8.03
2019-05-10T09:21:41.308Z,8.63
2019-05-10T09:24:09.786Z,8.50
2019-05-10T09:26:41.825Z,8.20
2019-05-10T09:29:12.689Z,8.10
2019-05-10T09:31:45.934Z,9.00
2019-05-10T09:34:15.740Z,8.20
2019-05-10T09:36:47.190Z,8.73
2019-05-10T09:39:21.794Z,8.40
2019-05-10T09:41:52.839Z,5.87
2019-05-10T09:44:22.975Z,4.33
2019-05-10T09:46:53.555Z,4.73
2019-05-10T09:49:24.241Z,3.30
2019-05-10T09:51:55.132Z,3.63
2019-05-10T09:54:29.356Z,5.07
2019-05-10T09:56:58.149Z,5.40
2019-05-10T09:59:28.816Z,5.97
2019-05-10T10:01:59.467Z,5.60
2019-05-10T10:04:30.052Z,5.80
2019-05-10T10:07:00.669Z,5.80
2019-05-10T10:09:37.337Z,5.20
2019-05-10T10:12:03.684Z,5.50
2019-05-10T10:14:39.386Z,5.20
2019-05-10T10:17:08.243Z,5.60
2019-05-10T10:19:40.685Z,5.17
2019-05-10T10:22:13.266Z,5.20
2019-05-10T10:24:49.145Z,6.03
2019-05-10T10:27:17.194Z,6.20
2019-05-10T10:29:48.029Z,10.03
2019-05-10T10:32:19.333Z,10.87
2019-05-10T10:34:54.079Z,15.13
2019-05-10T10:37:28.258Z,8.40
2019-05-10T10:40:00.715Z,16.60
2019-05-10T10:42:27.337Z,10.47
2019-05-10T10:44:58.154Z,8.03
2019-05-10T10:47:32.092Z,6.50
2019-05-10T10:50:03.041Z,6.60
2019-05-10T10:52:33.674Z,6.17
2019-05-10T10:55:10.319Z,5.80
2019-05-10T10:57:37.906Z,8.17
2019-05-10T11:00:10.206Z,5.90
2019-05-10T11:02:41.819Z,4.83
2019-05-10T11:05:12.875Z,4.83
2019-05-10T11:07:47.334Z,5.13
2019-05-10T11:10:22.002Z,4.80
2019-05-10T11:12:51.469Z,4.60
2019-05-10T11:15:28.244Z,7.27
2019-05-10T11:17:56.129Z,4.27
2019-05-10T11:20:27.342Z,4.37
2019-05-10T11:22:58.013Z,5.37
2019-05-10T11:25:28.619Z,4.80
2019-05-10T11:28:01.765Z,5.20
2019-05-10T11:30:32.453Z,5.60
2019-05-10T11:33:29.683Z,6.40
2019-05-10T11:35:57.668Z,5.40
2019-05-10T11:38:27.888Z,5.10
2019-05-10T11:40:58.778Z,5.03
2019-05-10T11:43:31.317Z,5.60
2019-05-10T11:46:01.799Z,5.83
2019-05-10T11:48:37.169Z,5.63
2019-05-10T11:51:05.762Z,6.50
2019-05-10T11:53:37.205Z,6.33
2019-05-10T11:56:13.655Z,6.37
2019-05-10T11:58:49.833Z,5.93
2019-05-10T12:01:17.317Z,5.87
2019-05-10T12:03:44.766Z,6.70
2019-05-10T12:06:15.441Z,6.10
2019-05-10T12:08:46.093Z,5.97
2019-05-10T12:11:31.901Z,5.53
2019-05-10T12:13:56.790Z,5.10
2019-05-10T12:16:21.581Z,5.93
2019-05-10T12:21:24.615Z,5.20
2019-05-10T12:23:56.645Z,5.27
2019-05-10T12:26:27.772Z,5.77
2019-05-10T12:29:11.623Z,5.50
2019-05-10T12:31:32.433Z,4.80
2019-05-10T12:34:09.022Z,5.10
2019-05-10T12:36:35.740Z,5.77
2019-05-10T12:39:11.396Z,5.37
2019-05-10T12:41:48.417Z,6.27
2019-05-10T12:44:14.123Z,4.67
2019-05-10T12:46:44.864Z,4.67
2019-05-10T12:49:15.495Z,1.90
2019-05-10T12:51:46.113Z,2.00
2019-05-10T12:54:18.598Z,1.60
2019-05-10T12:56:49.336Z,1.67
2019-05-10T12:59:20.014Z,1.60
2019-05-10T13:01:50.709Z,1.17
2019-05-10T13:04:27.601Z,1.20
2019-05-10T13:06:54.176Z,1.43
2019-05-10T13:09:38.490Z,1.43
2019-05-10T13:12:04.080Z,1.57
2019-05-10T13:14:29.947Z,1.27
2019-05-10T13:17:03.928Z,1.37
2019-05-10T13:19:33.025Z,1.37
2019-05-10T13:22:07.152Z,1.13
2019-05-10T13:24:36.385Z,1.80
2019-05-10T13:27:07.382Z,1.50
2019-05-10T13:29:40.678Z,1.13
2019-05-10T13:32:14.915Z,0.90
2019-05-10T13:34:44.734Z,0.80
2019-05-10T13:37:23.414Z,0.70
2019-05-10T13:39:48.111Z,1.40
2019-05-10T13:42:19.044Z,1.20
2019-05-10T13:44:49.839Z,1.20
2019-05-10T13:47:20.783Z,1.40
2019-05-10T13:49:51.850Z,1.20
2019-05-10T13:52:22.529Z,1.40
2019-05-10T13:55:23.883Z,1.30
2019-05-10T13:57:54.542Z,1.20
2019-05-10T14:00:33.077Z,1.70
2019-05-10T14:02:57.825Z,1.90
2019-05-10T14:05:28.487Z,1.70
2019-05-10T14:08:00.331Z,2.83
2019-05-10T14:10:31.047Z,3.40
2019-05-10T14:13:03.810Z,3.30
2019-05-10T14:15:34.726Z,4.67
2019-05-10T14:18:07.692Z,4.23
2019-05-10T14:20:38.391Z,3.60
2019-05-10T14:23:09.238Z,2.87
2019-05-10T14:25:39.813Z,1.40
2019-05-10T14:28:15.830Z,1.80
2019-05-10T14:30:46.350Z,2.13
2019-05-10T14:33:17.265Z,2.00
2019-05-10T14:35:48.915Z,2.10
2019-05-10T14:38:23.071Z,2.10
2019-05-10T14:40:54.021Z,1.20
2019-05-10T14:43:24.710Z,1.43
2019-05-10T14:45:55.361Z,1.07
2019-05-10T14:48:45.156Z,0.90
2019-05-10T14:51:15.880Z,1.17
2019-05-10T14:53:46.675Z,1.20
2019-05-10T14:56:17.538Z,1.23
2019-05-10T14:58:48.192Z,1.40
2019-05-10T15:01:18.749Z,1.40
2019-05-10T15:03:49.420Z,1.40
2019-05-10T15:06:20.113Z,1.40
2019-05-10T15:08:51.251Z,1.60
2019-05-10T15:11:26.579Z,1.70
2019-05-10T15:13:54.202Z,2.60
2019-05-10T15:16:27.219Z,2.70
2019-05-10T15:18:57.330Z,5.47
2019-05-10T15:21:27.894Z,4.00
2019-05-10T15:24:00.984Z,3.40
2019-05-10T15:26:37.402Z,4.20
2019-05-10T15:29:07.455Z,3.37
2019-05-10T15:31:38.199Z,3.80
2019-05-10T15:34:09.142Z,3.10
2019-05-10T15:36:40.942Z,2.47
2019-05-10T15:39:12.666Z,2.87
2019-05-10T15:41:43.334Z,2.87
2019-05-10T15:44:15.006Z,2.47
2019-05-10T15:46:45.774Z,2.30
2019-05-10T15:49:22.667Z,2.40
2019-05-10T15:51:54.654Z,1.90
2019-05-10T15:54:21.089Z,4.07
2019-05-10T15:56:55.225Z,6.17
2019-05-10T15:59:24.303Z,4.83
2019-05-10T16:02:06.910Z,4.03
2019-05-10T16:04:37.629Z,2.80
2019-05-10T16:07:09.456Z,2.37
2019-05-10T16:09:40.709Z,2.60
2019-05-10T16:12:11.401Z,2.80
2019-05-10T16:14:45.415Z,2.60
2019-05-10T16:17:17.510Z,2.60
2019-05-10T16:19:50.387Z,2.87
2019-05-10T16:22:19.352Z,2.70
2019-05-10T16:24:50.051Z,2.83
2019-05-10T16:27:20.756Z,3.03
2019-05-10T16:29:55.288Z,3.10
2019-05-10T16:32:29.392Z,3.50
2019-05-10T16:35:05.939Z,4.70
2019-05-10T16:37:33.161Z,3.13
2019-05-10T16:40:03.916Z,3.20
2019-05-10T16:42:36.856Z,2.47
2019-05-10T16:45:08.307Z,2.00
2019-05-10T16:47:44.095Z,2.33
2019-05-10T16:50:15.035Z,2.17
2019-05-10T16:52:45.546Z,3.00
2019-05-10T16:55:16.437Z,4.03
2019-05-10T16:57:50.636Z,3.60
2019-05-10T17:00:21.704Z,3.50
2019-05-10T17:02:52.369Z,2.50
2019-05-10T17:05:26.320Z,2.00
2019-05-10T17:07:58.767Z,2.20
2019-05-10T17:10:32.993Z,2.10
2019-05-10T17:13:04.916Z,2.53
2019-05-10T17:15:39.854Z,2.13
2019-05-10T17:18:10.801Z,2.30
2019-05-10T17:20:45.503Z,2.67
2019-05-10T17:23:15.976Z,2.37
2019-05-10T17:25:49.067Z,2.50
2019-05-10T17:28:21.973Z,2.73
2019-05-10T17:30:52.751Z,2.70
2019-05-10T17:33:23.561Z,2.83
2019-05-10T17:36:07.515Z,2.70
2019-05-10T17:38:26.984Z,2.93
2019-05-10T17:41:07.900Z,2.83
2019-05-10T17:43:40.869Z,2.80
2019-05-10T17:46:18.533Z,2.70
2019-05-10T17:48:47.208Z,3.50
2019-05-10T17:51:22.881Z,2.87
2019-05-10T17:54:01.429Z,3.70
2019-05-10T17:56:32.924Z,3.50
2019-05-10T17:59:05.996Z,3.37
2019-05-10T18:01:47.301Z,3.90
2019-05-10T18:04:21.710Z,4.40
2019-05-10T18:07:02.728Z,4.30
2019-05-10T18:09:37.645Z,4.77
2019-05-10T18:12:08.351Z,4.43
2019-05-10T18:14:39.914Z,4.67
2019-05-10T18:17:10.546Z,4.67
2019-05-10T18:19:41.354Z,5.27
2019-05-10T18:22:12.755Z,5.57
2019-05-10T18:24:44.440Z,5.40
2019-05-10T18:27:15.593Z,5.97
2019-05-10T18:29:46.388Z,6.10
2019-05-10T18:32:18.154Z,6.70
2019-05-10T18:34:50.466Z,6.67
2019-05-10T18:37:23.374Z,6.60
2019-05-10T18:39:54.852Z,7.27
2019-05-10T18:42:27.765Z,8.07
2019-05-10T18:45:01.060Z,7.80
2019-05-10T18:47:37.820Z,7.83
2019-05-10T18:50:09.131Z,7.97
2019-05-10T18:52:44.185Z,8.43
2019-05-10T18:55:19.620Z,7.80
2019-05-10T18:57:53.832Z,7.50
2019-05-10T19:00:25.310Z,7.70
2019-05-10T19:03:03.016Z,7.40
2019-05-10T19:05:39.918Z,7.63
2019-05-10T19:08:22.556Z,7.70
2019-05-10T19:11:03.263Z,7.60
2019-05-10T19:13:46.770Z,7.83
2019-05-10T19:16:11.762Z,8.27
2019-05-10T19:18:43.545Z,8.97
2019-05-10T19:21:15.838Z,9.57
2019-05-10T19:23:52.270Z,9.87
2019-05-10T19:26:31.643Z,13.67
2019-05-10T19:29:05.422Z,28.87
2019-05-10T19:31:41.561Z,25.83
2019-05-10T19:34:15.487Z,17.83
2019-05-10T19:36:56.610Z,17.30
2019-05-10T19:39:31.619Z,15.77
2019-05-10T19:42:06.564Z,14.27
2019-05-10T19:44:42.437Z,21.13
2019-05-10T19:47:19.891Z,25.83
2019-05-10T19:49:53.439Z,20.60
2019-05-10T19:52:26.537Z,20.43
2019-05-10T19:55:01.815Z,21.17
2019-05-10T19:57:32.634Z,19.77
2019-05-10T20:00:08.391Z,21.87
2019-05-10T20:02:39.115Z,24.10
2019-05-10T20:05:15.620Z,22.17
2019-05-10T20:07:47.765Z,21.13
2019-05-10T20:10:18.795Z,20.57
2019-05-10T20:12:55.225Z,20.83
2019-05-10T20:15:26.018Z,20.23
2019-05-10T20:17:56.895Z,20.17
2019-05-10T20:20:33.061Z,19.77
2019-05-10T20:23:09.005Z,19.73
2019-05-10T20:25:46.474Z,20.60
2019-05-10T20:28:17.581Z,21.33
2019-05-10T20:30:52.058Z,20.53
2019-05-10T20:33:31.374Z,21.00
2019-05-10T20:36:04.606Z,20.03
2019-05-10T20:38:38.988Z,22.30
2019-05-10T20:41:16.014Z,27.20
2019-05-10T20:43:56.165Z,35.97
2019-05-10T20:46:26.839Z,29.23
2019-05-10T20:48:58.605Z,27.90
2019-05-10T20:51:29.378Z,24.47
2019-05-10T20:54:08.466Z,27.70
2019-05-10T20:56:41.435Z,27.20
2019-05-10T20:59:13.369Z,26.47
2019-05-10T21:01:45.232Z,35.43
2019-05-10T21:04:15.850Z,34.20
2019-05-10T21:06:46.469Z,39.03
2019-05-10T21:09:17.212Z,42.23
2019-05-10T21:11:47.900Z,38.30
2019-05-10T21:14:18.533Z,36.03
2019-05-10T21:16:49.095Z,34.90
2019-05-10T21:19:20.242Z,34.87
2019-05-10T21:21:50.900Z,34.77
2019-05-10T21:24:21.489Z,34.03
2019-05-10T21:26:52.190Z,36.23
2019-05-10T21:29:22.780Z,33.77
2019-05-10T21:31:53.579Z,34.67
2019-05-10T21:34:24.074Z,32.63
2019-05-10T21:36:54.760Z,33.40
2019-05-10T21:39:25.536Z,36.73
2019-05-10T21:41:56.255Z,36.23
2019-05-10T21:44:26.919Z,37.07
2019-05-10T21:46:57.528Z,35.50
2019-05-10T21:49:28.168Z,38.77
2019-05-10T21:51:58.750Z,61.87
2019-05-10T21:54:29.516Z,56.27
2019-05-10T21:57:00.108Z,51.10
2019-05-10T21:59:30.874Z,49.60
2019-05-10T22:02:01.637Z,44.90
2019-05-10T22:07:12.545Z,40.23
2019-05-10T22:09:43.185Z,44.80
2019-05-10T22:12:13.857Z,40.27
2019-05-10T22:14:44.569Z,40.37
2019-05-10T22:17:15.216Z,40.40
2019-05-10T22:19:46.007Z,38.63
2019-05-10T22:22:16.891Z,42.13
2019-05-10T22:24:47.504Z,48.97
2019-05-10T22:27:18.174Z,50.47
2019-05-10T22:29:49.245Z,47.20
2019-05-10T22:32:19.765Z,41.70
2019-05-10T22:34:50.336Z,39.90
2019-05-10T22:37:21.056Z,45.90
2019-05-10T22:39:51.789Z,42.27
2019-05-10T22:42:22.534Z,43.57
2019-05-10T22:44:53.074Z,41.77
2019-05-10T22:47:25.491Z,36.47
2019-05-10T22:49:56.146Z,35.47
2019-05-10T22:52:26.815Z,36.00
2019-05-10T22:55:00.341Z,34.20
2019-05-10T22:57:29.765Z,38.37
2019-05-10T23:00:00.315Z,38.87
2019-05-10T23:02:30.810Z,43.13
2019-05-10T23:05:01.387Z,39.97
2019-05-10T23:07:32.195Z,37.20
2019-05-10T23:10:02.898Z,38.13
2019-05-10T23:12:33.529Z,37.03
2019-05-10T23:15:04.494Z,36.43
2019-05-10T23:17:35.225Z,39.47
2019-05-10T23:20:06.396Z,41.27
2019-05-10T23:22:37.095Z,42.17
2019-05-10T23:25:08.031Z,39.17
2019-05-10T23:27:38.784Z,35.57
2019-05-10T23:30:09.648Z,32.60
2019-05-10T23:32:40.196Z,36.10
2019-05-10T23:35:12.387Z,32.80
2019-05-10T23:37:42.987Z,31.37
2019-05-10T23:40:14.614Z,32.07
2019-05-10T23:42:45.215Z,31.20
2019-05-10T23:45:15.827Z,27.63
2019-05-10T23:47:46.353Z,28.53
2019-05-10T23:50:17.204Z,27.80
2019-05-10T23:52:47.896Z,27.60
2019-05-10T23:55:18.507Z,26.13
2019-05-10T23:57:49.119Z,25.17
